Time;durP1;ratioP1;P1;durP2;ratioP2;P2;SDS_P1;SDS_P2;PMS_P1;PMS_P2;Temp;Humidity;BMP_temperature;BMP_pressure;BME280_temperature;BME280_humidity;BME280_pressure;Samples;Min_cycle;Max_cycle;Signal;HPM_P1;HPM_P2
2021/01/16 00:01:06;;;;;;;80.20;35.30;;;;;;;-7.24;64.11;101993.75;4997638;28;20491;-77
2021/01/16 00:03:38;;;;;;;66.53;32.60;;;;;;;-7.17;64.51;102058.78;5017063;28;20033;-78
2021/01/16 00:06:05;;;;;;;75.18;36.40;;;;;;;-5.88;65.25;102273.06;5021239;28;20028;-78
2021/01/16 00:08:37;;;;;;;74.40;35.47;;;;;;;-5.83;64.53;102262.81;5023208;28;20034;-80
2021/01/16 00:11:03;;;;;;;79.28;39.88;;;;;;;-6.47;63.75;102176.28;5017428;28;20057;-78
2021/01/16 00:13:33;;;;;;;69.50;35.85;;;;;;;-6.60;63.74;102175.38;5037238;28;20052;-79
2021/01/16 00:16:01;;;;;;;79.00;38.22;;;;;;;-6.42;62.27;102151.69;5028390;28;20124;-80
2021/01/16 00:18:28;;;;;;;70.82;35.53;;;;;;;-6.04;61.75;102257.94;5038270;28;20101;-78
2021/01/16 00:20:58;;;;;;;69.82;32.25;;;;;;;-6.66;60.43;102121.91;5037788;28;20040;-79
2021/01/16 00:23:25;;;;;;;;;;;;;;;-5.69;59.69;102305.91;5036507;28;20036;-78
2021/01/16 00:25:58;;;;;;;70.63;31.10;;;;;;;-5.83;59.33;102324.88;5036530;28;19917;-78
2021/01/16 00:28:31;;;;;;;72.20;32.38;;;;;;;-6.80;57.75;102112.91;5037614;28;20494;-83
2021/01/16 00:31:02;;;;;;;46.10;24.98;;;;;;;-7.00;56.98;102141.16;5037907;28;20106;-79
2021/01/16 00:33:34;;;;;;;58.60;26.95;;;;;;;-7.81;58.48;102056.63;5036737;28;20036;-78
2021/01/16 00:36:03;;;;;;;55.88;27.35;;;;;;;-7.15;57.88;102121.47;5035330;28;20367;-80
2021/01/16 00:38:37;;;;;;;51.67;26.23;;;;;;;-5.80;57.93;102344.41;5035124;28;20025;-77
2021/01/16 00:41:06;;;;;;;50.55;27.80;;;;;;;-7.30;57.77;102121.50;5037440;28;20490;-79
2021/01/16 00:43:34;;;;;;;69.43;30.23;;;;;;;-6.36;57.29;102247.47;5037946;28;20104;-81
2021/01/16 00:46:01;;;;;;;58.55;23.38;;;;;;;-5.98;56.37;102280.91;5037444;28;20124;-78
2021/01/16 00:48:28;;;;;;;64.28;27.65;;;;;;;-7.30;57.29;102070.34;5029767;28;20025;-78
2021/01/16 00:50:55;;;;;;;53.15;28.55;;;;;;;-5.93;56.64;102286.84;5024519;28;20451;-78
2021/01/16 00:53:23;;;;;;;65.18;30.73;;;;;;;-5.99;56.36;102260.28;5038827;28;20044;-79
2021/01/16 00:55:53;;;;;;;58.55;29.75;;;;;;;-5.87;56.96;102334.13;5041796;28;20397;-78
2021/01/16 00:58:21;;;;;;;65.75;27.70;;;;;;;-5.73;56.21;102257.63;5019243;28;20033;-78
2021/01/16 01:00:54;;;;;;;61.30;30.08;;;;;;;-5.41;55.46;102358.00;5017656;28;20034;-79
2021/01/16 01:03:24;;;;;;;67.53;32.78;;;;;;;-5.71;54.02;102221.50;5020407;28;20057;-82
2021/01/16 01:05:53;;;;;;;53.97;28.48;;;;;;;-6.15;54.30;102176.88;5020082;28;20021;-80
2021/01/16 01:08:30;;;;;;;58.80;29.77;;;;;;;-6.16;54.60;102247.97;5039149;28;20026;-80
2021/01/16 01:10:57;;;;;;;61.97;29.58;;;;;;;-6.27;53.75;102155.19;5021462;28;20037;-82
2021/01/16 01:13:26;;;;;;;68.35;29.38;;;;;;;-5.68;55.31;102328.34;5038524;28;20028;-79
2021/01/16 01:15:53;;;;;;;70.03;29.58;;;;;;;-5.61;56.67;102417.88;5038312;28;20017;-78
2021/01/16 01:18:20;;;;;;;52.85;27.90;;;;;;;-5.39;56.29;102401.97;5038600;28;20029;-80
2021/01/16 01:20:46;;;;;;;66.70;30.92;;;;;;;-6.58;55.65;102151.00;5030614;28;20045;-78
2021/01/16 01:23:16;;;;;;;56.13;29.42;;;;;;;-6.37;56.15;102224.19;5029911;28;20583;-79
2021/01/16 01:25:44;;;;;;;67.78;30.13;;;;;;;-5.71;57.55;102380.69;5034181;28;20026;-79
2021/01/16 01:28:11;;;;;;;56.42;28.45;;;;;;;-5.77;56.33;102341.50;5036151;28;20025;-79
2021/01/16 01:30:40;;;;;;;68.68;29.65;;;;;;;-7.02;58.30;102213.94;5037266;28;20029;-78
2021/01/16 01:33:14;;;;;;;62.80;29.40;;;;;;;-5.37;58.52;102412.66;5021185;28;20116;-79
2021/01/16 01:35:41;;;;;;;52.33;30.27;;;;;;;-6.33;58.87;102239.19;5035820;28;20072;-80
2021/01/16 01:38:14;;;;;;;61.05;28.80;;;;;;;-4.95;57.03;102429.59;5034543;28;20025;-79
2021/01/16 01:40:42;;;;;;;53.53;27.33;;;;;;;-5.98;56.36;102219.75;5014759;28;20048;-80
2021/01/16 01:43:09;;;;;;;57.08;28.10;;;;;;;-5.90;55.75;102238.09;5015774;28;20116;-78
2021/01/16 01:45:37;;;;;;;58.67;28.05;;;;;;;-5.29;56.69;102388.69;5015358;28;20064;-79
2021/01/16 01:48:05;;;;;;;63.42;29.52;;;;;;;-6.63;55.22;102122.56;5018839;28;20041;-79
2021/01/16 01:50:32;;;;;;;58.67;28.50;;;;;;;-4.62;55.73;102412.97;5020581;28;20025;-78
2021/01/16 01:53:02;;;;;;;62.83;31.42;;;;;;;-4.46;54.04;102418.16;5035764;28;20588;-80
2021/01/16 01:55:30;;;;;;;62.50;31.95;;;;;;;-5.32;53.81;102325.94;5035130;28;20025;-80
2021/01/16 01:58:00;;;;;;;57.58;29.58;;;;;;;-6.97;55.48;102167.03;5024472;28;20046;-78
2021/01/16 02:10:06;;;;;;;62.00;29.20;;;;;;;-5.97;51.42;102124.38;5043199;28;20089;-84
2021/01/16 02:12:40;;;;;;;63.90;28.38;;;;;;;-6.00;51.54;102097.59;5055812;28;20077;-87
2021/01/16 02:27:05;;;;;;;62.63;29.45;;;;;;;-4.84;53.95;102391.03;5446715;23;20988;-81
2021/01/16 02:29:33;;;;;;;57.15;26.80;;;;;;;-5.37;54.26;102297.44;5020661;28;20026;-80
2021/01/16 02:32:05;;;;;;;46.40;23.90;;;;;;;-6.02;52.98;102196.66;5011950;28;20066;-82
2021/01/16 02:34:55;;;;;;;62.83;27.73;;;;;;;-4.79;53.67;102369.06;5024677;28;20033;-82
2021/01/16 02:37:24;;;;;;;;;;;;;;;-5.11;54.19;102383.88;5006771;28;20054;-79
2021/01/16 02:40:20;;;;;;;57.30;27.50;;;;;;;-6.29;53.56;102167.06;5005402;28;19913;-83
2021/01/16 02:43:19;;;;;;;56.33;27.17;;;;;;;-6.07;53.63;102123.31;4983281;28;20030;-81
2021/01/16 02:46:02;;;;;;;62.17;28.17;;;;;;;-4.49;52.30;102299.38;5005348;28;20105;-80
2021/01/16 02:51:28;;;;;;;57.50;29.00;;;;;;;-4.54;53.29;102379.00;4991240;28;20066;-81
2021/01/16 02:54:02;;;;;;;58.28;31.35;;;;;;;-5.83;53.69;102249.34;4978580;28;20043;-82
2021/01/16 02:56:32;;;;;;;56.97;27.27;;;;;;;-4.70;54.85;102389.19;4995277;28;20498;-80
2021/01/16 02:58:58;;;;;;;59.63;28.85;;;;;;;-6.00;54.49;102156.94;4997862;28;20030;-80
2021/01/16 03:01:25;;;;;;;55.03;28.95;;;;;;;-5.01;54.77;102315.69;4996356;28;20035;-81
2021/01/16 03:03:52;;;;;;;64.35;29.60;;;;;;;-5.78;55.17;102225.56;4997673;28;20074;-82
2021/01/16 03:06:20;;;;;;;54.53;27.70;;;;;;;-5.22;54.45;102246.03;5001876;28;20543;-81
2021/01/16 03:08:49;;;;;;;56.47;30.08;;;;;;;-5.43;54.29;102214.16;4980347;28;20042;-82
2021/01/16 03:11:17;;;;;;;67.90;30.88;;;;;;;-5.89;54.61;102145.38;4993844;28;20014;-81
2021/01/16 03:13:49;;;;;;;64.65;29.77;;;;;;;-4.27;54.58;102369.84;4988715;28;20041;-82
2021/01/16 03:16:28;;;;;;;60.95;32.65;;;;;;;-4.98;53.42;102277.66;4988925;28;20066;-81
2021/01/16 03:19:06;;;;;;;54.45;26.83;;;;;;;-4.84;53.73;102252.34;5005569;28;20035;-81
2021/01/16 03:21:44;;;;;;;58.15;26.70;;;;;;;-6.56;52.11;101893.97;5007499;28;20085;-84
2021/01/16 03:24:17;;;;;;;56.00;24.40;;;;;;;-7.32;52.10;101857.00;4973569;28;20038;-84
2021/01/16 03:26:46;;;;;;;68.15;30.15;;;;;;;-6.07;53.30;102045.13;4974447;28;20027;-82
2021/01/16 03:29:19;;;;;;;58.20;28.52;;;;;;;-5.85;54.92;102226.97;4977440;28;20042;-83
2021/01/16 03:31:47;;;;;;;55.75;27.63;;;;;;;-7.35;54.85;101889.50;4973193;28;20030;-82
2021/01/16 03:34:18;;;;;;;61.25;27.80;;;;;;;-6.27;54.91;102024.94;5006568;28;20037;-85
2021/01/16 03:36:52;;;;;;;;;;;;;;;-4.31;54.30;102325.09;4989200;28;20164;-84
2021/01/16 03:39:50;;;;;;;62.97;27.30;;;;;;;-7.17;53.19;101827.31;4992839;28;19903;-85
2021/01/16 03:42:20;;;;;;;56.17;26.58;;;;;;;-5.85;53.59;102047.09;4978822;29;20034;-87
2021/01/16 03:45:04;;;;;;;53.15;27.00;;;;;;;-7.46;53.89;101789.81;4996114;28;20034;-83
2021/01/16 03:47:40;;;;;;;56.45;24.50;;;;;;;-5.59;54.34;102137.97;5013266;28;20062;-84
2021/01/16 03:50:15;;;;;;;49.38;25.40;;;;;;;-7.32;55.20;101894.69;4983737;28;20123;-83
2021/01/16 03:52:47;;;;;;;48.80;24.92;;;;;;;-5.79;54.75;102065.56;5000777;28;20065;-84
2021/01/16 03:55:42;;;;;;;44.75;24.30;;;;;;;-4.07;54.52;102331.50;5017680;28;20010;-83
2021/01/16 03:58:15;;;;;;;50.92;22.23;;;;;;;-6.54;57.44;102045.59;4989415;28;20045;-83
2021/01/16 04:00:54;;;;;;;53.13;25.83;;;;;;;-7.35;57.37;101845.59;5002951;28;20078;-84
2021/01/16 04:03:32;;;;;;;47.97;23.67;;;;;;;-7.72;58.16;101805.94;4982084;28;20138;-83
2021/01/16 04:06:22;;;;;;;45.55;22.40;;;;;;;-8.03;58.79;101775.72;4998026;28;20078;-84
2021/01/16 04:09:07;;;;;;;57.35;27.05;;;;;;;-6.54;58.74;102032.13;5002949;28;20065;-83
2021/01/16 04:11:59;;;;;;;57.80;27.65;;;;;;;-4.45;58.52;102300.91;4999371;28;20046;-84
2021/01/16 04:14:55;;;;;;;55.45;24.35;;;;;;;-6.08;58.44;102043.38;4985230;28;20035;-86
2021/01/16 04:17:25;;;;;;;48.15;26.52;;;;;;;-4.48;59.73;102293.88;4968123;28;20014;-85
2021/01/16 04:20:23;;;;;;;45.35;25.33;;;;;;;-6.68;59.45;101851.72;4991310;28;20034;-85
2021/01/16 04:22:58;;;;;;;48.15;23.85;;;;;;;-4.00;58.95;102293.06;4997491;28;20042;-83
2021/01/16 04:25:41;;;;;;;43.80;23.08;;;;;;;-5.64;58.52;101984.47;4978145;28;20093;-84
2021/01/16 04:28:21;;;;;;;49.00;26.25;;;;;;;-7.88;61.87;101747.81;4997714;28;20022;-83
2021/01/16 04:30:57;;;;;;;48.55;23.38;;;;;;;-5.64;62.50;102082.47;4998173;28;20076;-84
2021/01/16 04:33:50;;;;;;;50.38;23.50;;;;;;;-7.41;62.58;101814.59;4963984;28;20014;-84
2021/01/16 04:36:22;;;;;;;42.80;22.98;;;;;;;-5.73;62.00;101999.50;4996151;28;20030;-85
2021/01/16 04:39:18;;;;;;;43.15;23.17;;;;;;;-7.20;59.85;101784.47;4994562;28;20066;-83
2021/01/16 04:41:54;;;;;;;39.88;23.02;;;;;;;-5.45;62.05;102150.47;4994590;28;20077;-82
2021/01/16 04:44:24;;;;;;;48.25;22.02;;;;;;;-4.78;61.38;102278.03;4987901;28;20034;-83
2021/01/16 04:46:57;;;;;;;54.72;25.08;;;;;;;-5.67;61.00;102066.50;4983531;28;20034;-82
2021/01/16 04:49:27;;;;;;;42.40;20.52;;;;;;;-6.02;60.09;101990.84;4995905;28;20033;-83
2021/01/16 04:51:55;;;;;;;44.03;24.13;;;;;;;-4.24;60.62;102268.69;5006668;28;20034;-84
2021/01/16 04:54:23;;;;;;;43.13;23.42;;;;;;;-5.22;58.77;102140.72;4981631;28;20058;-81
2021/01/16 04:57:13;;;;;;;43.17;22.70;;;;;;;-4.40;57.43;102309.56;4967151;28;20097;-82
2021/01/16 05:00:14;;;;;;;40.63;20.60;;;;;;;-4.36;57.26;102316.44;4973963;28;20011;-85
2021/01/16 05:08:58;;;;;;;46.80;23.75;;;;;;;-5.99;57.78;102044.53;4674280;26;20066;-82
2021/01/16 05:11:24;;;;;;;43.70;20.85;;;;;;;-4.88;58.45;102332.75;4958597;28;20035;-75
2021/01/16 05:14:18;;;;;;;38.50;19.05;;;;;;;-4.77;58.17;102328.44;4939260;28;20039;-75
2021/01/16 05:16:56;;;;;;;40.30;20.23;;;;;;;-4.79;57.62;102276.31;4954020;28;20484;-75
2021/01/16 05:19:37;;;;;;;38.58;16.02;;;;;;;-4.60;55.24;102244.28;4969591;28;20093;-75
2021/01/16 05:22:04;;;;;;;34.35;18.42;;;;;;;-6.04;55.94;102063.78;4976662;28;20034;-75
2021/01/16 05:24:31;;;;;;;50.75;18.27;;;;;;;-4.86;55.58;102220.03;4960978;28;20062;-75
2021/01/16 05:27:06;;;;;;;31.23;17.95;;;;;;;-5.14;56.32;102143.72;4948586;28;20070;-75
2021/01/16 05:29:36;;;;;;;33.33;16.02;;;;;;;-5.43;54.69;102164.69;4969307;28;20488;-78
2021/01/16 05:32:05;;;;;;;34.72;15.90;;;;;;;-4.39;54.11;102249.09;4959788;28;20077;-78
2021/01/16 05:34:34;;;;;;;34.83;18.48;;;;;;;-4.80;54.93;102243.03;4940712;28;20121;-77
2021/01/16 05:37:01;;;;;;;36.65;20.33;;;;;;;-4.80;55.19;102264.66;4965158;28;20035;-75
2021/01/16 05:39:30;;;;;;;27.33;14.55;;;;;;;-4.84;54.69;102244.22;4955312;28;20042;-74
2021/01/16 05:42:05;;;;;;;35.47;17.73;;;;;;;-5.28;54.52;102162.75;4953872;29;20031;-78
2021/01/16 05:44:35;;;;;;;36.17;16.50;;;;;;;-6.20;54.31;102037.88;4954959;29;20031;-78
2021/01/16 05:47:04;;;;;;;31.70;15.73;;;;;;;-4.81;51.41;102315.13;4955496;29;20038;-74
2021/01/16 05:49:33;;;;;;;34.00;15.20;;;;;;;-4.61;51.10;102302.03;4952843;28;20039;-73
2021/01/16 05:52:07;;;;;;;26.88;15.20;;;;;;;-5.99;51.80;102126.31;4954295;28;20038;-75
2021/01/16 05:54:35;;;;;;;27.30;14.23;;;;;;;-4.62;50.95;102348.97;4953940;28;20031;-75
2021/01/16 05:57:04;;;;;;;38.72;15.52;;;;;;;-5.19;52.38;102286.31;4962727;28;20118;-77
2021/01/16 05:59:32;;;;;;;31.50;14.68;;;;;;;-4.89;52.39;102238.31;4959512;28;20113;-74
2021/01/16 06:02:03;;;;;;;27.25;14.60;;;;;;;-4.35;52.00;102328.16;4980561;28;20077;-77
2021/01/16 06:04:35;;;;;;;17.95;10.85;;;;;;;-4.36;50.25;102370.53;4966843;28;20523;-76
2021/01/16 06:07:06;;;;;;;28.83;14.52;;;;;;;-4.57;51.76;102330.56;4975782;28;20031;-75
2021/01/16 06:09:37;;;;;;;25.65;13.85;;;;;;;-4.60;51.27;102298.34;4975345;28;20035;-82
2021/01/16 06:12:06;;;;;;;25.58;13.20;;;;;;;-5.20;51.25;102181.09;4982115;28;20056;-82
2021/01/16 06:14:51;;;;;;;26.83;12.40;;;;;;;-4.93;51.46;102226.88;4983898;28;20439;-80
2021/01/16 06:17:19;;;;;;;32.45;13.85;;;;;;;-4.20;51.88;102323.44;4975470;28;20113;-81
2021/01/16 06:19:48;;;;;;;28.13;15.10;;;;;;;-4.35;52.00;102253.28;4939097;28;20106;-80
2021/01/16 06:22:16;;;;;;;29.85;13.93;;;;;;;-5.41;51.21;102022.41;4960364;28;20027;-82
2021/01/16 06:24:49;;;;;;;21.48;11.70;;;;;;;-4.27;50.76;102321.16;4967930;28;20026;-81
2021/01/16 06:27:27;;;;;;;25.83;13.50;;;;;;;-4.33;50.01;102254.00;4979345;28;20061;-81
2021/01/16 06:30:01;;;;;;;25.52;12.73;;;;;;;-4.21;49.07;102232.44;4980250;28;20031;-82
2021/01/16 06:32:30;;;;;;;18.75;9.88;;;;;;;-5.56;49.94;102089.16;4970569;28;20034;-81
2021/01/16 06:35:10;;;;;;;26.48;13.05;;;;;;;-5.32;50.47;102162.09;4959420;28;20031;-80
2021/01/16 06:37:46;;;;;;;23.00;10.35;;;;;;;-4.83;52.01;102278.38;4961373;28;20065;-78
2021/01/16 06:40:15;;;;;;;17.63;10.18;;;;;;;-4.68;51.94;102349.41;4967185;28;20038;-79
2021/01/16 06:42:54;;;;;;;24.45;11.75;;;;;;;-4.60;52.24;102335.31;4969423;28;20043;-81
2021/01/16 06:45:28;;;;;;;22.15;11.43;;;;;;;-5.01;52.54;102256.25;4977075;28;20088;-79
2021/01/16 06:48:02;;;;;;;23.98;12.35;;;;;;;-5.87;53.36;102145.28;4968872;28;20115;-78
2021/01/16 06:50:35;;;;;;;22.17;12.05;;;;;;;-5.59;53.82;102122.59;4958361;28;20050;-79
2021/01/16 06:53:03;;;;;;;22.77;13.35;;;;;;;-5.05;51.87;102173.72;4974130;28;20031;-78
2021/01/16 06:55:34;;;;;;;25.13;11.75;;;;;;;-4.54;52.60;102270.88;4966302;28;20035;-79
2021/01/16 06:58:18;;;;;;;26.65;12.88;;;;;;;-4.57;52.04;102244.03;4968752;28;20049;-80
2021/01/16 07:00:57;;;;;;;19.48;9.27;;;;;;;-4.71;51.64;102273.94;4964544;28;20508;-80
2021/01/16 07:03:28;;;;;;;21.27;11.07;;;;;;;-5.64;51.40;102138.28;4975694;28;20034;-80
2021/01/16 07:05:58;;;;;;;19.95;9.73;;;;;;;-5.96;51.23;102069.44;4975001;28;20022;-79
2021/01/16 07:08:25;;;;;;;20.02;9.30;;;;;;;-4.81;51.39;102280.00;4977823;28;20043;-79
2021/01/16 07:10:53;;;;;;;18.77;8.88;;;;;;;-4.97;49.96;102276.69;4977390;28;20031;-79
2021/01/16 07:13:24;;;;;;;17.50;9.20;;;;;;;-5.58;50.20;102182.88;4978423;28;20034;-79
2021/01/16 07:15:55;;;;;;;17.80;12.45;;;;;;;-5.49;50.68;102160.59;4977062;28;20030;-80
2021/01/16 07:18:22;;;;;;;19.63;9.95;;;;;;;-5.56;50.06;102110.75;4962314;28;20041;-79
2021/01/16 07:20:49;;;;;;;18.50;9.13;;;;;;;-5.07;50.19;102262.13;4978352;28;20407;-79
2021/01/16 07:23:18;;;;;;;33.38;13.25;;;;;;;-5.73;50.04;102120.91;4978093;28;20062;-80
2021/01/16 07:25:46;;;;;;;16.65;8.75;;;;;;;-4.21;50.52;102354.16;4978536;28;20066;-82
2021/01/16 07:28:13;;;;;;;20.92;10.23;;;;;;;-5.51;50.11;102103.19;4978228;28;20031;-80
2021/01/16 07:30:41;;;;;;;18.13;10.23;;;;;;;-5.63;49.97;102127.38;4978039;28;20055;-80
2021/01/16 07:33:08;;;;;;;20.67;10.70;;;;;;;-5.97;49.22;102008.38;4977263;28;20027;-80
2021/01/16 07:35:36;;;;;;;25.98;10.98;;;;;;;-4.32;50.68;102371.19;4976386;28;20439;-80
2021/01/16 07:38:06;;;;;;;27.33;9.40;;;;;;;-4.92;50.75;102244.81;4980310;28;20066;-82
2021/01/16 07:40:33;;;;;;;20.60;10.75;;;;;;;-5.82;52.14;102180.91;4980194;28;20031;-81
2021/01/16 07:43:02;;;;;;;22.00;9.32;;;;;;;-6.16;52.49;102124.81;4980487;28;20039;-81
2021/01/16 07:45:38;;;;;;;15.02;8.32;;;;;;;-5.97;51.76;102175.63;4963805;28;20018;-81
2021/01/16 07:48:06;;;;;;;13.73;8.40;;;;;;;-4.62;51.93;102385.94;4980139;28;20031;-80
2021/01/16 07:50:37;;;;;;;21.73;8.15;;;;;;;-4.72;51.42;102380.31;4978462;28;20106;-80
2021/01/16 07:53:08;;;;;;;32.42;7.28;;;;;;;-4.45;50.73;102368.50;4979277;28;20506;-80
2021/01/16 07:55:38;;;;;;;19.52;9.50;;;;;;;-4.70;51.10;102364.88;4979068;28;20027;-80
2021/01/16 07:58:32;;;;;;;17.98;10.13;;;;;;;-4.74;50.97;102372.34;4982269;28;20030;-80
2021/01/16 08:01:10;;;;;;;24.38;11.32;;;;;;;-5.67;50.44;102204.13;4982170;28;20035;-81
2021/01/16 08:04:19;;;;;;;24.15;11.70;;;;;;;-4.64;50.34;102341.94;4984165;28;20035;-81
2021/01/16 08:07:11;;;;;;;18.63;7.70;;;;;;;-4.36;50.41;102394.03;4979117;28;20082;-79
2021/01/16 08:09:55;;;;;;;20.90;10.90;;;;;;;-4.59;51.02;102408.19;4978378;28;20430;-79
2021/01/16 08:12:26;;;;;;;17.70;10.32;;;;;;;-6.46;51.39;102102.53;4974335;28;20057;-81
2021/01/16 08:15:01;;;;;;;20.17;11.07;;;;;;;-6.22;51.95;102189.94;4978828;28;20060;-80
2021/01/16 08:17:36;;;;;;;27.13;10.43;;;;;;;-6.34;52.41;102165.56;4972822;28;20027;-80
2021/01/16 08:20:29;;;;;;;26.98;12.02;;;;;;;-4.77;51.85;102350.91;4969154;28;20062;-80
2021/01/16 08:22:59;;;;;;;23.00;11.88;;;;;;;-5.58;51.79;102212.56;4949326;28;20444;-80
2021/01/16 08:25:27;;;;;;;23.40;9.73;;;;;;;-4.49;52.55;102404.84;4950883;28;20076;-78
2021/01/16 08:27:59;;;;;;;25.98;11.32;;;;;;;-6.74;52.71;102050.53;4970647;28;20058;-81
2021/01/16 08:30:29;;;;;;;26.33;10.60;;;;;;;-5.73;51.46;102204.56;4978858;28;20078;-81
2021/01/16 08:32:57;;;;;;;23.65;10.32;;;;;;;-5.60;52.39;102281.97;4979422;28;20031;-80
2021/01/16 08:35:45;;;;;;;26.80;12.75;;;;;;;-6.03;53.55;102254.28;4971354;28;20023;-79
2021/01/16 08:38:18;;;;;;;20.17;9.95;;;;;;;-4.96;53.37;102417.06;4967387;28;20054;-80
2021/01/16 08:41:06;;;;;;;18.73;11.07;;;;;;;-5.46;53.20;102316.97;4966503;28;20118;-80
2021/01/16 08:43:57;;;;;;;19.80;10.98;;;;;;;-5.65;52.78;102253.44;4981108;28;20468;-80
2021/01/16 08:46:32;;;;;;;25.92;11.85;;;;;;;-5.13;54.05;102410.13;4980309;28;20031;-79
2021/01/16 08:49:10;;;;;;;16.05;10.20;;;;;;;-6.93;53.88;102085.06;4980461;28;20106;-81
2021/01/16 08:51:45;;;;;;;23.50;9.55;;;;;;;-5.15;53.75;102358.06;4981707;28;20110;-80
2021/01/16 08:54:15;;;;;;;22.40;10.13;;;;;;;-5.38;54.00;102349.72;4982851;28;20041;-80
2021/01/16 08:57:04;;;;;;;28.70;10.13;;;;;;;-5.95;53.60;102227.59;4963062;28;20058;-79
2021/01/16 08:59:31;;;;;;;18.80;9.55;;;;;;;-6.62;53.83;102182.69;4966397;28;20039;-80
2021/01/16 09:02:11;;;;;;;23.45;9.20;;;;;;;-5.09;54.39;102433.25;4978972;28;20038;-80
2021/01/16 09:04:40;;;;;;;15.75;8.55;;;;;;;-6.14;54.02;102219.09;4980436;28;20026;-79
2021/01/16 09:07:20;;;;;;;17.17;8.82;;;;;;;-4.73;53.10;102416.41;4978402;28;20476;-79
2021/01/16 09:10:00;;;;;;;;;;;;;;;-4.79;53.31;102422.25;4980355;28;20053;-81
2021/01/16 09:12:43;;;;;;;24.25;9.32;;;;;;;-6.76;54.16;102144.03;4979645;28;19918;-81
2021/01/16 09:15:30;;;;;;;22.70;9.27;;;;;;;-5.03;53.87;102447.28;4980413;28;20377;-80
2021/01/16 09:18:08;;;;;;;41.13;9.98;;;;;;;-5.16;54.25;102421.16;4973617;28;20030;-80
2021/01/16 09:20:55;;;;;;;18.52;9.55;;;;;;;-6.43;54.48;102241.63;4969849;28;20050;-81
2021/01/16 09:23:31;;;;;;;19.88;8.85;;;;;;;-4.92;53.99;102414.13;4983241;28;20033;-81
2021/01/16 09:26:16;;;;;;;14.43;8.60;;;;;;;-5.27;53.76;102418.31;4968818;28;20118;-81
2021/01/16 09:29:01;;;;;;;19.85;8.93;;;;;;;-6.09;53.71;102263.66;4990050;28;20446;-82
2021/01/16 09:35:08;;;;;;;25.52;11.02;;;;;;;-5.22;53.22;102416.16;5013591;23;20064;-87
2021/01/16 09:37:54;;;;;;;11.82;6.63;;;;;;;-7.13;51.96;102098.03;5038649;28;20521;-83
2021/01/16 09:40:36;;;;;;;29.15;10.15;;;;;;;-6.58;52.60;102250.72;5074326;23;20061;-82
2021/01/16 09:46:34;;;;;;;23.98;8.63;;;;;;;-5.79;52.66;102312.88;5094185;23;20073;-80
2021/01/16 09:49:01;;;;;;;16.77;8.48;;;;;;;-6.08;52.91;102265.38;5025736;28;20040;-80
2021/01/16 09:51:35;;;;;;;22.73;10.05;;;;;;;-5.31;53.68;102425.75;5016825;28;20029;-81
2021/01/16 09:54:15;;;;;;;26.27;9.85;;;;;;;-8.09;54.04;101980.41;5036068;28;20478;-81
2021/01/16 09:56:41;;;;;;;;;;;;;;;-5.51;53.92;102443.28;5036292;28;20128;-81
2021/01/16 09:59:09;;;;;;;20.70;8.40;;;;;;;-5.75;54.06;102381.88;5034643;28;19967;-81
2021/01/16 10:01:36;;;;;;;18.30;9.43;;;;;;;-5.66;54.54;102407.38;5038140;28;20040;-80
2021/01/16 10:04:22;;;;;;;13.23;8.18;;;;;;;-6.40;53.55;102224.38;5049608;28;20025;-81
2021/01/16 10:06:50;;;;;;;26.10;10.07;;;;;;;-5.71;53.92;102366.34;5039445;28;20485;-82
2021/01/16 10:09:21;;;;;;;22.13;8.88;;;;;;;-7.33;53.88;102120.81;5038866;28;20032;-82
2021/01/16 10:11:49;;;;;;;19.05;9.38;;;;;;;-6.78;55.23;102253.72;5032993;28;20068;-81
2021/01/16 10:14:21;;;;;;;13.02;7.40;;;;;;;-6.43;53.58;102219.19;5056971;28;20021;-79
2021/01/16 10:16:50;;;;;;;25.02;8.70;;;;;;;-7.22;53.49;102144.34;5054569;28;20021;-81
2021/01/16 10:19:21;;;;;;;18.83;9.00;;;;;;;-5.68;53.02;102366.13;5047798;28;20039;-83
2021/01/16 10:22:03;;;;;;;14.57;7.75;;;;;;;-6.51;54.04;102304.13;5059712;28;20043;-81
2021/01/16 10:24:45;;;;;;;21.42;7.35;;;;;;;-8.96;53.95;101889.94;5065997;28;20024;-82
2021/01/16 10:27:32;;;;;;;17.87;8.67;;;;;;;-7.99;54.25;102051.44;5050711;28;20001;-83
2021/01/16 10:30:10;;;;;;;17.90;8.27;;;;;;;-6.20;54.68;102365.94;5037901;28;20283;-83
2021/01/16 10:32:57;;;;;;;22.05;9.20;;;;;;;-6.41;54.49;102335.84;5047953;28;20025;-85
2021/01/16 10:35:35;;;;;;;23.83;9.57;;;;;;;-5.23;53.67;102484.66;5042139;28;20035;-82
2021/01/16 10:38:02;;;;;;;29.77;8.98;;;;;;;-6.46;53.42;102307.34;5034514;28;20028;-80
2021/01/16 10:40:36;;;;;;;20.42;9.88;;;;;;;-6.75;53.47;102285.88;5055726;28;20086;-84
2021/01/16 10:43:14;;;;;;;21.48;8.98;;;;;;;-7.51;54.15;102153.34;5069942;28;20025;-85
2021/01/16 10:46:13;;;;;;;16.98;6.95;;;;;;;-5.93;52.94;102503.50;5048811;28;20079;-80
2021/01/16 10:48:41;;;;;;;18.38;7.45;;;;;;;-6.19;52.87;102387.41;5042735;28;20025;-80
2021/01/16 10:51:13;;;;;;;28.42;8.88;;;;;;;-7.03;52.81;102274.16;5062041;28;20041;-81
2021/01/16 10:53:41;;;;;;;18.63;8.05;;;;;;;-6.64;52.95;102340.88;5041062;28;20025;-81
2021/01/16 10:56:13;;;;;;;24.80;10.90;;;;;;;-5.89;52.25;102427.78;5050057;28;20112;-82
2021/01/16 10:58:46;;;;;;;16.13;8.80;;;;;;;-7.68;52.14;102132.88;5051331;28;20025;-83
2021/01/16 11:01:15;;;;;;;20.55;9.05;;;;;;;-5.59;52.86;102521.19;5034457;28;20119;-83
2021/01/16 11:03:44;;;;;;;27.10;9.93;;;;;;;-6.43;53.08;102354.81;5043224;28;20486;-81
2021/01/16 11:06:12;;;;;;;25.27;9.70;;;;;;;-8.25;53.24;102073.56;5050414;28;20029;-84
2021/01/16 11:08:41;;;;;;;11.30;7.18;;;;;;;-6.41;53.30;102403.25;5064843;28;20029;-83
2021/01/16 11:11:28;;;;;;;34.13;10.63;;;;;;;-6.21;53.43;102432.50;5042848;28;20012;-82
2021/01/16 11:14:01;;;;;;;25.00;10.30;;;;;;;-7.62;53.32;102244.63;5043823;28;20040;-83
2021/01/16 11:16:28;;;;;;;20.70;10.50;;;;;;;-6.30;53.95;102478.94;5051712;28;20093;-82
2021/01/16 11:19:17;;;;;;;14.18;8.00;;;;;;;-5.85;52.59;102507.53;5030646;28;20090;-81
2021/01/16 11:22:04;;;;;;;23.35;10.25;;;;;;;-5.82;52.10;102510.06;5034064;28;20037;-83
2021/01/16 11:24:53;;;;;;;17.42;9.27;;;;;;;-6.20;51.65;102517.81;5042852;28;20036;-82
2021/01/16 11:27:27;;;;;;;20.73;8.85;;;;;;;-7.19;51.92;102325.38;5050187;28;20051;-82
2021/01/16 11:30:05;;;;;;;22.88;9.15;;;;;;;-7.44;51.46;102293.72;5030108;28;20041;-80
2021/01/16 11:32:36;;;;;;;14.77;6.65;;;;;;;-5.89;50.29;102524.91;5050917;28;20381;-82
2021/01/16 11:35:14;;;;;;;16.15;7.75;;;;;;;-6.96;49.47;102324.94;5059941;28;20413;-82
2021/01/16 11:37:51;;;;;;;23.95;8.27;;;;;;;-6.01;50.00;102511.22;5035381;28;20033;-83
2021/01/16 11:40:22;;;;;;;24.00;8.95;;;;;;;-6.12;50.55;102502.97;5027186;28;20041;-82
2021/01/16 11:42:56;;;;;;;18.52;10.13;;;;;;;-7.03;50.28;102345.97;5046091;28;20033;-82
2021/01/16 11:45:25;;;;;;;23.23;8.60;;;;;;;-6.96;49.58;102341.94;5063585;28;20095;-81
2021/01/16 11:47:59;;;;;;;26.27;8.95;;;;;;;-7.43;49.38;102264.03;5032151;28;20029;-83
2021/01/16 11:50:36;;;;;;;23.25;10.43;;;;;;;-7.37;48.79;102260.09;5054817;28;20025;-83
2021/01/16 11:53:12;;;;;;;23.45;8.30;;;;;;;-6.43;48.08;102445.59;5068264;28;20069;-82
2021/01/16 11:55:40;;;;;;;20.70;9.13;;;;;;;-6.37;48.83;102529.63;5031317;28;20084;-83
2021/01/16 11:58:09;;;;;;;22.17;11.38;;;;;;;-7.47;48.58;102337.84;5047082;28;20032;-81
2021/01/16 12:00:37;;;;;;;25.50;8.80;;;;;;;-6.70;48.11;102440.97;5066100;28;20041;-83
2021/01/16 12:03:06;;;;;;;17.65;10.07;;;;;;;-9.58;48.14;101948.09;5049719;28;20024;-83
2021/01/16 12:05:33;;;;;;;13.77;7.20;;;;;;;-7.28;48.37;102377.09;5047981;28;20033;-83
2021/01/16 12:08:01;;;;;;;24.50;10.50;;;;;;;-8.02;48.36;102261.31;5057120;28;20046;-82
2021/01/16 12:10:31;;;;;;;22.60;10.02;;;;;;;-6.54;48.09;102476.75;5030576;28;20045;-82
2021/01/16 12:12:59;;;;;;;24.52;10.52;;;;;;;-8.17;49.94;102266.63;5042632;28;20033;-82
2021/01/16 12:15:29;;;;;;;23.65;8.70;;;;;;;-7.04;49.61;102415.13;5006419;28;20033;-82
2021/01/16 12:17:57;;;;;;;20.77;9.57;;;;;;;-6.58;49.79;102506.69;5028831;28;20025;-81
2021/01/16 12:20:26;;;;;;;23.83;10.82;;;;;;;-7.71;50.14;102292.59;5058375;28;20029;-80